West Newton, Indiana
Current Conditions -  °F | °C
As of 12:54 PM on Monday 24 Nov 2014 (Local Time) from KIND Reporting Station
Drizzle Drizzle  
Wind Chill: 25°   Ceiling: 1500
Heat Index: 37°   Visibility: 9mi
Dew Point: 34°   Wind: 25mph
Humidity: 89%   Direction: 230°SW
Pressure: 29.55"   Gusts: 33mph
Location:  39.65°N, 86.28°W
Report Text: KIND 241754Z 23022G29KT 9SM -DZ OVC015 03/01 A2955 RMK AO2 PK WND 23033/1713 DZB13E17B36RAB17E36 SLP008 P0000 60001 T00280011 10122 20028 51062
Loading
Personal Weather Stations






























Interactive Weather Map New forecast layout! Learn more

10-Day Weather Forecast

Advertisements
Track Severe Weather on mobile